createdAt,value
2017-04-09T00:00:12.560Z,40.68
2017-04-09T00:01:13.251Z,40.28
2017-04-09T00:02:13.304Z,41.47
2017-04-09T00:03:14.014Z,39.65
2017-04-09T00:04:14.802Z,39.75
2017-04-09T00:05:14.850Z,41.18
2017-04-09T00:06:15.549Z,40.43
2017-04-09T00:07:15.494Z,40.92
2017-04-09T00:08:15.521Z,37.40
2017-04-09T00:09:15.510Z,37.40
2017-04-09T00:10:15.514Z,38.18
2017-04-09T00:11:15.484Z,39.48
2017-04-09T00:12:16.214Z,39.10
2017-04-09T00:13:16.963Z,40.00
2017-04-09T00:14:16.967Z,37.65
2017-04-09T00:15:17.598Z,39.72
2017-04-09T00:16:17.534Z,37.22
2017-04-09T00:17:17.515Z,37.83
2017-04-09T00:18:17.525Z,39.23
2017-04-09T00:19:17.487Z,39.43
2017-04-09T00:20:18.213Z,39.03
2017-04-09T00:21:18.910Z,36.73
2017-04-09T00:22:18.862Z,37.93
2017-04-09T00:23:18.845Z,37.28
2017-04-09T00:24:20.010Z,37.27
2017-04-09T00:25:19.985Z,39.72
2017-04-09T00:26:20.704Z,41.55
2017-04-09T00:27:21.377Z,37.85
2017-04-09T00:28:21.293Z,40.07
2017-04-09T00:29:21.324Z,39.72
2017-04-09T00:30:21.276Z,42.22
2017-04-09T00:31:21.224Z,40.13
2017-04-09T00:32:21.167Z,39.13
2017-04-09T00:33:21.119Z,40.20
2017-04-09T00:34:21.093Z,41.67
2017-04-09T00:35:21.146Z,40.70
2017-04-09T00:36:21.116Z,41.52
2017-04-09T00:37:21.062Z,40.30
2017-04-09T00:38:21.007Z,38.95
2017-04-09T00:39:20.983Z,40.05
2017-04-09T00:40:20.908Z,39.33
2017-04-09T00:41:21.709Z,39.03
2017-04-09T00:42:21.725Z,40.43
2017-04-09T00:43:26.262Z,40.82
2017-04-09T00:44:26.926Z,40.20
2017-04-09T00:45:26.924Z,40.05
2017-04-09T00:46:26.865Z,40.58
2017-04-09T00:47:26.812Z,39.18
2017-04-09T00:48:26.895Z,41.30
2017-04-09T00:49:27.585Z,39.77
2017-04-09T00:50:27.547Z,38.38
2017-04-09T00:51:27.501Z,38.03
2017-04-09T00:52:27.479Z,37.45
2017-04-09T00:53:27.402Z,39.65
2017-04-09T00:54:27.391Z,39.33
2017-04-09T00:55:27.394Z,41.20
2017-04-09T00:56:27.358Z,39.50
2017-04-09T00:57:28.073Z,38.67
2017-04-09T00:58:28.045Z,38.12
2017-04-09T00:59:28.004Z,40.32
2017-04-09T01:00:28.000Z,37.50
2017-04-09T01:01:28.748Z,39.85
2017-04-09T01:02:28.689Z,40.03
2017-04-09T01:03:28.654Z,38.35
2017-04-09T01:04:28.582Z,38.62
2017-04-09T01:05:28.628Z,40.93
2017-04-09T01:06:28.641Z,38.88
2017-04-09T01:07:29.353Z,37.38
2017-04-09T01:08:29.306Z,41.13
2017-04-09T01:09:29.274Z,41.23
2017-04-09T01:10:29.384Z,39.95
2017-04-09T01:11:29.392Z,38.40
2017-04-09T01:12:29.319Z,38.17
2017-04-09T01:13:29.254Z,39.55
2017-04-09T01:14:29.232Z,36.97
2017-04-09T01:15:29.957Z,38.25
2017-04-09T01:16:29.964Z,38.17
2017-04-09T01:17:29.979Z,39.92
2017-04-09T01:18:30.657Z,38.82
2017-04-09T01:19:30.615Z,39.67
2017-04-09T01:20:30.649Z,43.22
2017-04-09T01:21:30.673Z,38.85
2017-04-09T01:22:30.649Z,39.85
2017-04-09T01:23:30.907Z,39.30
2017-04-09T01:24:31.594Z,38.13
2017-04-09T01:25:31.615Z,38.55
2017-04-09T01:26:31.559Z,39.15
2017-04-09T01:27:31.574Z,40.75
2017-04-09T01:28:31.541Z,37.80
2017-04-09T01:29:31.783Z,37.65
2017-04-09T01:30:31.648Z,37.52
2017-04-09T01:31:31.632Z,39.45
2017-04-09T01:32:31.789Z,38.97
2017-04-09T01:33:32.025Z,38.68
2017-04-09T01:34:32.572Z,41.08
2017-04-09T01:35:32.521Z,41.13
2017-04-09T01:36:32.763Z,41.55
2017-04-09T01:37:33.327Z,43.87
2017-04-09T01:38:33.391Z,41.85
2017-04-09T01:39:33.395Z,41.40
2017-04-09T01:40:33.442Z,41.13
2017-04-09T01:41:34.024Z,40.35
2017-04-09T01:42:34.705Z,41.00
2017-04-09T01:43:34.690Z,41.47
2017-04-09T01:44:34.706Z,43.23
2017-04-09T01:45:34.746Z,39.38
2017-04-09T01:46:35.529Z,40.45
2017-04-09T01:47:35.521Z,41.37
2017-04-09T01:48:35.513Z,40.33
2017-04-09T01:49:35.600Z,42.00
2017-04-09T01:50:36.322Z,39.00
2017-04-09T01:51:37.009Z,41.57
2017-04-09T01:52:36.972Z,40.67
2017-04-09T01:53:36.966Z,41.27
2017-04-09T01:54:37.676Z,42.10
2017-04-09T01:55:38.439Z,42.40
2017-04-09T01:56:38.371Z,42.07
2017-04-09T01:57:38.367Z,41.13
2017-04-09T01:58:38.333Z,37.93
2017-04-09T01:59:38.306Z,40.63
2017-04-09T02:00:38.297Z,41.40
2017-04-09T02:01:38.330Z,41.00
2017-04-09T02:02:39.080Z,40.30
2017-04-09T02:03:39.811Z,40.78
2017-04-09T02:04:39.760Z,40.03
2017-04-09T02:05:39.757Z,41.20
2017-04-09T02:06:39.728Z,38.93
2017-04-09T02:07:39.725Z,43.10
2017-04-09T02:08:40.455Z,38.57
2017-04-09T02:09:40.391Z,39.15
2017-04-09T02:10:40.334Z,40.90
2017-04-09T02:11:40.561Z,40.80
2017-04-09T02:12:40.375Z,41.23
2017-04-09T02:13:40.310Z,41.72
2017-04-09T02:14:40.253Z,42.02
2017-04-09T02:15:40.258Z,41.88
2017-04-09T02:16:40.270Z,40.23
2017-04-09T02:17:40.498Z,41.47
2017-04-09T02:18:40.402Z,38.62
2017-04-09T02:19:41.106Z,38.70
2017-04-09T02:20:41.525Z,39.98
2017-04-09T02:21:41.326Z,41.18
2017-04-09T02:22:42.100Z,39.68
2017-04-09T02:23:42.037Z,41.67
2017-04-09T02:24:41.974Z,42.45
2017-04-09T02:25:42.673Z,39.50
2017-04-09T02:26:42.642Z,41.67
2017-04-09T02:27:42.590Z,42.18
2017-04-09T02:28:42.669Z,39.97
2017-04-09T02:29:42.639Z,41.75
2017-04-09T02:30:42.698Z,42.15
2017-04-09T02:31:42.626Z,42.83
2017-04-09T02:32:42.843Z,42.27
2017-04-09T02:33:42.705Z,43.05
2017-04-09T02:34:42.656Z,43.58
2017-04-09T02:35:43.461Z,44.37
2017-04-09T02:36:43.740Z,41.57
2017-04-09T02:37:43.679Z,41.78
2017-04-09T02:38:43.923Z,40.88
2017-04-09T02:39:43.742Z,42.42
2017-04-09T02:40:43.677Z,42.30
2017-04-09T02:41:43.626Z,44.48
2017-04-09T02:42:44.402Z,45.22
2017-04-09T02:43:44.375Z,42.25
2017-04-09T02:44:44.313Z,41.63
2017-04-09T02:45:44.294Z,44.03
2017-04-09T02:46:44.285Z,45.62
2017-04-09T02:47:44.949Z,41.75
2017-04-09T02:48:44.975Z,42.60
2017-04-09T02:49:45.498Z,45.75
2017-04-09T02:50:45.520Z,42.80
2017-04-09T02:51:45.446Z,41.72
2017-04-09T02:52:46.124Z,42.48
2017-04-09T02:53:46.227Z,42.60
2017-04-09T02:54:46.182Z,42.62
2017-04-09T02:55:46.907Z,42.28
2017-04-09T02:56:47.627Z,40.55
2017-04-09T02:57:48.325Z,41.70
2017-04-09T02:58:49.015Z,43.22
2017-04-09T02:59:48.927Z,41.75
2017-04-09T03:00:48.822Z,40.45
2017-04-09T03:01:48.726Z,43.48
2017-04-09T03:02:48.636Z,41.35
2017-04-09T03:03:48.537Z,41.22
2017-04-09T03:04:48.456Z,42.18
2017-04-09T03:05:48.347Z,40.23
2017-04-09T03:06:48.264Z,40.73
2017-04-09T03:07:48.182Z,40.35
2017-04-09T03:08:48.385Z,41.73
2017-04-09T03:09:48.910Z,40.88
2017-04-09T03:10:48.817Z,45.50
2017-04-09T03:11:48.725Z,38.05
2017-04-09T03:12:48.962Z,39.73
2017-04-09T03:13:48.726Z,37.37
2017-04-09T03:14:48.643Z,39.80
2017-04-09T03:15:49.341Z,42.22
2017-04-09T03:16:49.234Z,41.10
2017-04-09T03:17:49.206Z,39.95
2017-04-09T03:18:49.182Z,39.58
2017-04-09T03:19:49.830Z,38.95
2017-04-09T03:20:49.770Z,40.57
2017-04-09T03:21:49.661Z,39.68
2017-04-09T03:22:49.566Z,37.48
2017-04-09T03:23:49.468Z,37.65
2017-04-09T03:24:49.373Z,40.68
2017-04-09T03:25:49.307Z,39.47
2017-04-09T03:26:49.212Z,38.45
2017-04-09T03:27:49.127Z,39.15
2017-04-09T03:28:49.073Z,38.12
2017-04-09T03:29:49.709Z,37.80
2017-04-09T03:30:49.632Z,39.37
2017-04-09T03:31:49.529Z,37.58
2017-04-09T03:32:49.455Z,40.23
2017-04-09T03:33:49.349Z,37.75
2017-04-09T03:34:49.266Z,41.42
2017-04-09T03:35:49.206Z,37.82
2017-04-09T03:36:49.927Z,39.00
2017-04-09T03:37:49.888Z,41.55
2017-04-09T03:38:49.884Z,37.50
2017-04-09T03:39:49.857Z,40.03
2017-04-09T03:40:50.569Z,38.62
2017-04-09T03:41:51.220Z,39.78
2017-04-09T03:42:51.161Z,40.77
2017-04-09T03:43:51.095Z,40.42
2017-04-09T03:44:51.059Z,38.48
2017-04-09T03:45:51.807Z,38.15
2017-04-09T03:46:52.063Z,39.95
2017-04-09T03:47:52.154Z,37.15
2017-04-09T03:48:51.972Z,36.65
2017-04-09T03:49:51.901Z,36.30
2017-04-09T03:50:51.888Z,36.85
2017-04-09T03:51:51.852Z,37.68
2017-04-09T03:52:51.847Z,36.47
2017-04-09T03:53:51.767Z,39.63
2017-04-09T03:54:51.775Z,41.88
2017-04-09T03:55:51.727Z,39.33
2017-04-09T03:56:51.693Z,38.53
2017-04-09T03:57:51.917Z,40.02
2017-04-09T03:58:51.764Z,38.50
2017-04-09T03:59:51.704Z,38.00
2017-04-09T04:00:51.641Z,37.37
2017-04-09T04:01:52.315Z,39.13
2017-04-09T04:02:52.224Z,38.88
2017-04-09T04:03:52.164Z,37.25
2017-04-09T04:04:52.797Z,38.45
2017-04-09T04:05:52.719Z,39.05
2017-04-09T04:06:52.655Z,37.95
2017-04-09T04:07:52.559Z,37.85
2017-04-09T04:08:52.477Z,37.65
2017-04-09T04:09:52.405Z,35.87
2017-04-09T04:10:53.069Z,38.85
2017-04-09T04:11:53.009Z,39.07
2017-04-09T04:12:52.934Z,35.72
2017-04-09T04:13:53.596Z,39.38
2017-04-09T04:14:53.528Z,38.90
2017-04-09T04:15:53.439Z,41.38
2017-04-09T04:16:53.373Z,39.67
2017-04-09T04:17:54.027Z,40.23
2017-04-09T04:18:53.965Z,39.83
2017-04-09T04:19:53.864Z,40.97
2017-04-09T04:20:53.787Z,41.55
2017-04-09T04:21:53.749Z,40.75
2017-04-09T04:22:53.652Z,39.78
2017-04-09T04:23:53.637Z,35.98
2017-04-09T04:24:54.283Z,40.42
2017-04-09T04:25:54.191Z,37.92
2017-04-09T04:26:54.151Z,40.03
2017-04-09T04:27:54.790Z,36.60
2017-04-09T04:28:55.455Z,38.08
2017-04-09T04:29:55.369Z,38.43
2017-04-09T04:30:55.659Z,38.85
2017-04-09T04:31:55.599Z,40.28
2017-04-09T04:32:55.504Z,39.28
2017-04-09T04:33:55.409Z,39.88
2017-04-09T04:34:55.307Z,39.47
2017-04-09T04:35:55.238Z,38.93
2017-04-09T04:36:55.954Z,37.02
2017-04-09T04:37:55.868Z,37.67
2017-04-09T04:38:56.523Z,37.10
2017-04-09T04:39:56.445Z,38.12
2017-04-09T04:40:56.378Z,37.03
2017-04-09T04:41:56.307Z,39.57
2017-04-09T04:42:56.969Z,39.90
2017-04-09T04:43:56.925Z,39.45
2017-04-09T04:44:57.585Z,36.65
2017-04-09T04:45:57.495Z,38.53
2017-04-09T04:46:57.432Z,36.40
2017-04-09T04:47:57.401Z,38.62
2017-04-09T04:48:57.351Z,36.33
2017-04-09T04:49:57.254Z,39.52
2017-04-09T04:50:57.159Z,37.33
2017-04-09T04:51:57.104Z,39.87
2017-04-09T04:52:57.049Z,40.12
2017-04-09T04:53:56.976Z,39.78
2017-04-09T04:54:57.197Z,41.50
2017-04-09T04:55:56.988Z,41.67
2017-04-09T04:56:56.924Z,40.10
2017-04-09T04:57:57.609Z,36.98
2017-04-09T04:58:57.508Z,38.47
2017-04-09T04:59:57.484Z,37.90
2017-04-09T05:00:57.431Z,41.58
2017-04-09T05:01:57.368Z,40.37
2017-04-09T05:02:58.152Z,39.72
2017-04-09T05:03:58.160Z,41.47
2017-04-09T05:04:58.098Z,40.45
2017-04-09T05:05:58.872Z,39.47
2017-04-09T05:06:58.804Z,41.53
2017-04-09T05:07:58.778Z,38.90
2017-04-09T05:08:58.720Z,37.13
2017-04-09T05:09:58.679Z,38.15
2017-04-09T05:10:58.639Z,38.68
2017-04-09T05:11:58.882Z,36.88
2017-04-09T05:12:59.536Z,38.88
2017-04-09T05:13:59.491Z,38.17
2017-04-09T05:15:00.164Z,37.40
2017-04-09T05:16:00.128Z,36.62
2017-04-09T05:17:00.194Z,36.92
2017-04-09T05:18:00.168Z,37.80
2017-04-09T05:19:00.099Z,38.35
2017-04-09T05:20:00.028Z,37.38
2017-04-09T05:21:00.348Z,38.30
2017-04-09T05:22:00.140Z,37.88
2017-04-09T05:23:00.474Z,38.25
2017-04-09T05:24:00.284Z,38.98
2017-04-09T05:25:00.939Z,36.42
2017-04-09T05:26:00.872Z,37.57
2017-04-09T05:27:00.804Z,38.62
2017-04-09T05:28:01.514Z,36.65
2017-04-09T05:29:02.280Z,38.62
2017-04-09T05:30:02.908Z,38.07
2017-04-09T05:31:02.827Z,39.32
2017-04-09T05:32:02.773Z,39.62
2017-04-09T05:33:03.503Z,36.40
2017-04-09T05:34:04.196Z,38.62
2017-04-09T05:35:04.223Z,39.90
2017-04-09T05:36:04.454Z,37.18
2017-04-09T05:37:04.256Z,39.32
2017-04-09T05:38:05.019Z,39.95
2017-04-09T05:39:05.540Z,40.23
2017-04-09T05:40:05.451Z,39.35
2017-04-09T05:41:05.404Z,40.30
2017-04-09T05:42:06.078Z,41.30
2017-04-09T05:43:06.084Z,38.52
2017-04-09T05:44:06.021Z,38.82
2017-04-09T05:45:06.016Z,38.07
2017-04-09T05:46:05.960Z,39.05
2017-04-09T05:47:06.615Z,38.92
2017-04-09T05:48:06.574Z,41.83
2017-04-09T05:49:07.255Z,40.65
2017-04-09T05:50:07.620Z,39.95
2017-04-09T05:51:08.312Z,39.45
2017-04-09T05:52:08.309Z,41.05
2017-04-09T05:53:08.267Z,40.58
2017-04-09T05:54:08.336Z,41.35
2017-04-09T05:55:08.260Z,41.07
2017-04-09T05:56:08.961Z,42.38
2017-04-09T05:57:08.908Z,40.17
2017-04-09T05:58:09.013Z,41.35
2017-04-09T05:59:08.948Z,40.08
2017-04-09T06:00:08.859Z,42.08
2017-04-09T06:01:08.764Z,41.28
2017-04-09T06:02:08.672Z,40.97
2017-04-09T06:03:08.602Z,43.23
2017-04-09T06:04:08.534Z,42.47
2017-04-09T06:05:09.179Z,41.80
2017-04-09T06:06:09.062Z,41.53
2017-04-09T06:07:09.688Z,39.93
2017-04-09T06:08:09.609Z,41.85
2017-04-09T06:09:09.544Z,41.57
2017-04-09T06:10:09.451Z,44.20
2017-04-09T06:11:10.376Z,40.40
2017-04-09T06:12:10.296Z,41.77
2017-04-09T06:13:10.190Z,40.77
2017-04-09T06:14:10.171Z,41.58
2017-04-09T06:15:10.074Z,42.00
2017-04-09T06:16:10.000Z,41.97
2017-04-09T06:17:09.938Z,43.00
2017-04-09T06:18:10.609Z,42.23
2017-04-09T06:19:10.604Z,40.70
2017-04-09T06:20:10.553Z,42.17
2017-04-09T06:21:10.532Z,42.38
2017-04-09T06:22:10.440Z,42.88
2017-04-09T06:23:10.406Z,42.62
2017-04-09T06:24:11.115Z,45.25
2017-04-09T06:25:11.840Z,44.12
2017-04-09T06:26:12.492Z,45.20
2017-04-09T06:27:12.447Z,47.87
2017-04-09T06:28:12.362Z,47.35
2017-04-09T06:29:12.610Z,47.68
2017-04-09T06:30:13.120Z,47.57
2017-04-09T06:31:13.068Z,46.93
2017-04-09T06:32:12.968Z,47.93
2017-04-09T06:33:12.899Z,49.28
2017-04-09T06:34:12.862Z,51.53
2017-04-09T06:35:12.806Z,47.25
2017-04-09T06:36:12.720Z,52.27
2017-04-09T06:37:14.875Z,47.32
2017-04-09T06:38:15.100Z,49.58
2017-04-09T06:39:14.924Z,48.48
2017-04-09T06:40:14.852Z,48.98
2017-04-09T06:41:14.792Z,50.42
2017-04-09T06:42:14.716Z,47.93
2017-04-09T06:43:15.388Z,49.13
2017-04-09T06:44:15.314Z,49.55
2017-04-09T06:45:15.223Z,52.65
2017-04-09T06:46:15.128Z,51.55
2017-04-09T06:47:15.039Z,50.45
2017-04-09T06:48:14.944Z,52.43
2017-04-09T06:49:14.873Z,54.47
2017-04-09T06:50:15.539Z,51.58
2017-04-09T06:51:15.447Z,52.23
2017-04-09T06:52:15.410Z,51.80
2017-04-09T06:53:16.070Z,51.65
2017-04-09T06:54:15.996Z,50.77
2017-04-09T06:55:15.939Z,51.63
2017-04-09T06:56:16.583Z,47.85
2017-04-09T06:57:16.628Z,49.00
2017-04-09T06:58:16.532Z,48.13
2017-04-09T06:59:16.437Z,48.20
2017-04-09T07:00:16.408Z,50.47
2017-04-09T07:01:16.349Z,50.93
2017-04-09T07:02:16.264Z,52.05
2017-04-09T07:03:16.481Z,49.18
2017-04-09T07:04:16.278Z,47.53
2017-04-09T07:05:16.209Z,49.45
2017-04-09T07:06:16.897Z,52.53
2017-04-09T07:07:16.820Z,49.73
2017-04-09T07:08:17.525Z,50.13
2017-04-09T07:09:17.433Z,47.20
2017-04-09T07:10:17.352Z,48.62
2017-04-09T07:11:18.047Z,50.43
2017-04-09T07:12:18.124Z,52.52
2017-04-09T07:13:18.058Z,49.15
2017-04-09T07:14:17.990Z,47.28
2017-04-09T07:15:18.221Z,46.13
2017-04-09T07:16:18.068Z,48.77
2017-04-09T07:17:18.007Z,47.50
2017-04-09T07:18:18.247Z,48.75
2017-04-09T07:19:18.025Z,49.65
2017-04-09T07:20:18.247Z,48.98
2017-04-09T07:21:18.061Z,48.70
2017-04-09T07:22:18.775Z,47.17
2017-04-09T07:23:19.451Z,49.37
2017-04-09T07:24:19.354Z,47.28
2017-04-09T07:25:19.289Z,46.20
2017-04-09T07:26:19.251Z,49.67
2017-04-09T07:27:19.207Z,49.22
2017-04-09T07:28:19.900Z,47.20
2017-04-09T07:29:19.818Z,49.42
2017-04-09T07:30:19.736Z,49.35
2017-04-09T07:31:20.403Z,49.98
2017-04-09T07:32:20.397Z,48.57
2017-04-09T07:33:20.357Z,46.77
2017-04-09T07:34:20.274Z,48.02
2017-04-09T07:35:20.956Z,46.88
2017-04-09T07:36:20.867Z,49.35
2017-04-09T07:37:20.811Z,48.80
2017-04-09T07:38:21.558Z,46.15
2017-04-09T07:39:22.183Z,51.53
2017-04-09T07:40:22.124Z,48.02
2017-04-09T07:41:22.146Z,53.10
2017-04-09T07:42:22.068Z,50.10
2017-04-09T07:43:22.764Z,49.23
2017-04-09T07:44:22.678Z,47.98
2017-04-09T07:45:22.598Z,48.10
2017-04-09T07:46:22.546Z,48.38
2017-04-09T07:47:22.641Z,49.18
2017-04-09T07:48:23.332Z,51.80
2017-04-09T07:49:23.290Z,49.53
2017-04-09T07:50:23.211Z,51.20
2017-04-09T07:51:23.110Z,49.25
2017-04-09T07:52:23.007Z,48.25
2017-04-09T07:53:22.936Z,51.77
2017-04-09T07:54:22.873Z,48.02
2017-04-09T07:55:23.562Z,50.88
2017-04-09T07:56:23.483Z,49.78
2017-04-09T07:57:23.399Z,49.93
2017-04-09T07:58:24.073Z,53.02
2017-04-09T07:59:24.033Z,48.13
2017-04-09T08:00:24.726Z,61.65
2017-04-09T08:01:24.621Z,47.95
2017-04-09T08:02:24.538Z,49.68
2017-04-09T08:03:24.510Z,62.73
2017-04-09T08:04:24.407Z,48.83
2017-04-09T08:05:24.345Z,52.67
2017-04-09T08:06:24.362Z,50.82
2017-04-09T08:07:24.369Z,57.10
2017-04-09T08:08:24.828Z,55.00
2017-04-09T08:09:24.747Z,53.07
2017-04-09T08:10:24.652Z,48.93
2017-04-09T08:11:24.642Z,50.62
2017-04-09T08:12:25.307Z,51.43
2017-04-09T08:13:25.228Z,50.88
2017-04-09T08:14:25.150Z,51.87
2017-04-09T08:15:25.347Z,49.85
2017-04-09T08:16:25.141Z,53.13
2017-04-09T08:17:25.096Z,57.97
2017-04-09T08:18:25.092Z,51.32
2017-04-09T08:19:25.811Z,53.17
2017-04-09T08:20:26.447Z,52.63
2017-04-09T08:21:26.356Z,55.57
2017-04-09T08:22:26.301Z,55.90
2017-04-09T08:23:26.233Z,56.98
2017-04-09T08:24:26.872Z,54.62
2017-04-09T08:25:27.540Z,54.23
2017-04-09T08:26:27.433Z,64.45
2017-04-09T08:27:27.392Z,53.47
2017-04-09T08:28:28.083Z,54.58
2017-04-09T08:29:27.997Z,57.17
2017-04-09T08:30:28.083Z,57.23
2017-04-09T08:31:27.988Z,56.30
2017-04-09T08:32:27.955Z,55.07
2017-04-09T08:33:28.612Z,57.78
2017-04-09T08:34:28.508Z,56.57
2017-04-09T08:35:28.413Z,56.80
2017-04-09T08:36:28.333Z,57.33
2017-04-09T08:37:28.241Z,55.88
2017-04-09T08:38:28.200Z,52.95
2017-04-09T08:39:28.844Z,54.30
2017-04-09T08:40:28.795Z,55.62
2017-04-09T08:41:29.927Z,55.95
2017-04-09T08:42:29.845Z,55.87
2017-04-09T08:43:30.547Z,54.88
2017-04-09T08:44:30.470Z,58.53
2017-04-09T08:45:31.124Z,57.47
2017-04-09T08:46:31.040Z,58.18
2017-04-09T08:47:30.934Z,54.08
2017-04-09T08:48:30.896Z,54.45
2017-04-09T08:49:30.813Z,55.02
2017-04-09T08:50:31.496Z,55.87
2017-04-09T08:51:31.433Z,57.48
2017-04-09T08:52:31.447Z,54.51
2017-04-09T08:53:32.186Z,55.33
2017-04-09T08:54:32.858Z,58.40
2017-04-09T08:55:32.780Z,56.95
2017-04-09T08:56:32.722Z,55.45
2017-04-09T08:57:33.611Z,56.13
2017-04-09T08:58:33.567Z,55.73
2017-04-09T08:59:33.488Z,56.75
2017-04-09T09:00:33.440Z,57.83
2017-04-09T09:01:33.365Z,60.40
2017-04-09T09:02:33.304Z,59.16
2017-04-09T09:03:33.248Z,57.77
2017-04-09T09:04:33.212Z,56.30
2017-04-09T09:05:33.127Z,58.99
2017-04-09T09:06:33.019Z,57.84
2017-04-09T09:07:32.966Z,57.86
2017-04-09T09:08:33.149Z,57.21
2017-04-09T09:09:33.064Z,57.31
2017-04-09T09:10:42.730Z,56.00
2017-04-09T09:11:42.736Z,57.76
2017-04-09T09:12:43.434Z,56.54
2017-04-09T09:13:43.377Z,57.59
2017-04-09T09:14:44.036Z,57.01
2017-04-09T09:15:43.940Z,57.89
2017-04-09T09:16:43.901Z,55.70
2017-04-09T09:17:44.568Z,59.53
2017-04-09T09:18:44.486Z,55.51
2017-04-09T09:19:44.442Z,57.29
2017-04-09T09:20:45.104Z,57.23
2017-04-09T09:21:45.021Z,56.53
2017-04-09T09:22:48.990Z,58.90
2017-04-09T09:23:48.956Z,57.39
2017-04-09T09:24:49.607Z,57.47
2017-04-09T09:25:49.516Z,57.26
2017-04-09T09:26:49.409Z,54.80
2017-04-09T09:27:49.315Z,54.93
2017-04-09T09:28:49.228Z,55.91
2017-04-09T09:29:49.168Z,56.41
2017-04-09T09:30:49.060Z,57.40
2017-04-09T09:31:49.038Z,57.63
2017-04-09T09:32:48.948Z,56.61
2017-04-09T09:33:48.904Z,56.53
2017-04-09T09:34:48.813Z,56.13
2017-04-09T09:35:48.776Z,53.87
2017-04-09T09:36:48.871Z,53.81
2017-04-09T09:37:49.515Z,52.77
2017-04-09T09:38:49.486Z,53.23
2017-04-09T09:39:50.135Z,54.44
2017-04-09T09:40:50.224Z,55.27
2017-04-09T09:41:50.886Z,53.31
2017-04-09T09:42:51.020Z,52.04
2017-04-09T09:43:56.651Z,51.94
2017-04-09T09:44:56.560Z,51.46
2017-04-09T09:45:56.468Z,52.79
2017-04-09T09:46:56.368Z,50.27
2017-04-09T09:47:56.302Z,54.17
2017-04-09T09:48:56.968Z,52.54
2017-04-09T09:49:56.902Z,52.93
2017-04-09T09:50:56.810Z,53.64
2017-04-09T09:51:56.724Z,53.80
2017-04-09T09:52:57.378Z,50.87
2017-04-09T09:53:57.339Z,54.60
2017-04-09T09:54:57.277Z,50.67
2017-04-09T09:55:57.203Z,53.09
2017-04-09T09:56:57.149Z,54.44
2017-04-09T09:57:57.576Z,53.56
2017-04-09T09:58:58.276Z,54.11
2017-04-09T09:59:58.255Z,52.63
2017-04-09T10:00:58.189Z,52.70
2017-04-09T10:01:58.128Z,51.70
2017-04-09T10:02:58.833Z,51.81
2017-04-09T10:03:59.255Z,52.17
2017-04-09T10:04:59.203Z,50.99
2017-04-09T10:05:59.161Z,48.96
2017-04-09T10:06:59.104Z,51.11
2017-04-09T10:07:59.029Z,51.30
2017-04-09T10:08:58.985Z,47.33
2017-04-09T10:10:00.431Z,51.41
2017-04-09T10:11:01.180Z,50.34
2017-04-09T10:12:01.117Z,50.90
2017-04-09T10:13:01.068Z,52.14
2017-04-09T10:14:01.804Z,53.14
2017-04-09T10:15:01.727Z,47.96
2017-04-09T10:16:01.663Z,51.59
2017-04-09T10:17:01.592Z,50.47
2017-04-09T10:18:01.832Z,50.10
2017-04-09T10:19:02.437Z,49.63
2017-04-09T10:20:03.130Z,48.73
2017-04-09T10:21:03.144Z,50.74
2017-04-09T10:22:03.108Z,51.21
2017-04-09T10:23:03.089Z,50.33
2017-04-09T10:24:03.820Z,51.56
2017-04-09T10:25:03.826Z,52.17
2017-04-09T10:26:04.636Z,51.67
2017-04-09T10:27:04.553Z,52.29
2017-04-09T10:28:04.515Z,52.44
2017-04-09T10:29:04.687Z,51.84
2017-04-09T10:30:04.659Z,52.40
2017-04-09T10:31:05.320Z,52.19
2017-04-09T10:32:05.234Z,52.23
2017-04-09T10:33:05.186Z,51.40
2017-04-09T10:34:05.974Z,52.13
2017-04-09T10:35:05.901Z,52.20
2017-04-09T10:36:06.130Z,52.56
2017-04-09T10:37:06.063Z,51.16
2017-04-09T10:38:06.025Z,55.49
2017-04-09T10:39:05.983Z,54.96
2017-04-09T10:40:05.917Z,52.27
2017-04-09T10:41:05.913Z,52.47
2017-04-09T10:42:05.870Z,53.04
2017-04-09T10:43:06.552Z,53.14
2017-04-09T10:44:06.558Z,52.93
2017-04-09T10:45:06.508Z,52.17
2017-04-09T10:46:07.185Z,50.51
2017-04-09T10:47:07.113Z,50.34
2017-04-09T10:48:07.320Z,51.41
2017-04-09T10:49:07.164Z,51.37
2017-04-09T10:50:07.110Z,50.73
2017-04-09T10:51:07.148Z,50.51
2017-04-09T10:52:07.908Z,47.57
2017-04-09T10:53:07.860Z,46.23
2017-04-09T10:54:07.856Z,48.59
2017-04-09T10:55:07.863Z,47.56
2017-04-09T10:56:07.784Z,47.13
2017-04-09T10:57:08.472Z,49.87
2017-04-09T10:58:08.431Z,45.56
2017-04-09T10:59:09.196Z,49.24
2017-04-09T11:00:09.143Z,45.61
2017-04-09T11:01:09.129Z,46.33
2017-04-09T11:02:09.103Z,46.64
2017-04-09T11:03:09.011Z,45.99
2017-04-09T11:04:08.994Z,48.43
2017-04-09T11:05:09.692Z,43.93
2017-04-09T11:06:11.231Z,41.99
2017-04-09T11:07:11.451Z,40.17
2017-04-09T11:08:11.238Z,42.79
2017-04-09T11:09:11.203Z,37.03
2017-04-09T11:10:11.136Z,34.91
2017-04-09T11:11:11.087Z,38.70
2017-04-09T11:12:11.759Z,40.69
2017-04-09T11:13:11.674Z,42.20
2017-04-09T11:14:11.652Z,42.80
2017-04-09T11:15:11.548Z,41.96
2017-04-09T11:16:11.488Z,42.36
2017-04-09T11:17:11.697Z,45.83
2017-04-09T11:18:11.657Z,47.46
2017-04-09T11:19:11.607Z,48.49
2017-04-09T11:20:11.559Z,47.77
2017-04-09T11:21:11.476Z,46.06
2017-04-09T11:22:11.400Z,46.26
2017-04-09T11:23:11.332Z,46.67
2017-04-09T11:24:11.355Z,47.11
2017-04-09T11:25:12.032Z,46.21
2017-04-09T11:26:11.935Z,46.96
2017-04-09T11:27:11.867Z,47.89
2017-04-09T11:28:11.823Z,45.54
2017-04-09T11:29:11.697Z,45.10
2017-04-09T11:30:12.405Z,45.00
2017-04-09T11:31:12.310Z,40.53
2017-04-09T11:32:12.220Z,40.94
2017-04-09T11:33:12.150Z,44.47
2017-04-09T11:34:12.056Z,43.34
2017-04-09T11:35:11.992Z,43.30
2017-04-09T11:36:11.906Z,40.50
2017-04-09T11:37:11.842Z,40.87
2017-04-09T11:38:11.764Z,40.01
2017-04-09T11:39:12.428Z,40.16
2017-04-09T11:40:12.380Z,38.30
2017-04-09T11:41:13.141Z,39.10
2017-04-09T11:42:13.063Z,39.63
2017-04-09T11:43:13.042Z,37.09
2017-04-09T11:44:12.953Z,39.63
2017-04-09T11:45:12.904Z,41.00
2017-04-09T11:46:12.804Z,41.56
2017-04-09T11:47:12.708Z,41.33
2017-04-09T11:48:12.632Z,41.87
2017-04-09T11:49:12.545Z,41.95
2017-04-09T11:50:12.480Z,40.18
2017-04-09T11:51:12.441Z,40.65
2017-04-09T11:52:12.393Z,38.82
2017-04-09T11:53:12.323Z,40.62
2017-04-09T11:54:12.268Z,37.90
2017-04-09T11:55:12.197Z,37.73
2017-04-09T11:56:12.919Z,38.92
2017-04-09T11:57:12.835Z,37.46
2017-04-09T11:58:12.796Z,36.38
2017-04-09T11:59:12.722Z,37.29
2017-04-09T12:00:12.664Z,36.63
2017-04-09T12:01:12.599Z,37.73
2017-04-09T12:02:12.568Z,35.43
2017-04-09T12:03:12.506Z,35.03
2017-04-09T12:04:12.453Z,35.97
2017-04-09T12:05:13.116Z,34.23
2017-04-09T12:06:13.071Z,33.83
2017-04-09T12:07:14.126Z,31.70
2017-04-09T12:08:14.047Z,30.80
2017-04-09T12:09:14.056Z,30.42
2017-04-09T12:10:14.116Z,32.10
2017-04-09T12:11:14.820Z,31.71
2017-04-09T12:12:14.792Z,35.63
2017-04-09T12:13:14.992Z,36.23
2017-04-09T12:14:15.049Z,33.75
2017-04-09T12:15:15.089Z,34.27
2017-04-09T12:16:15.391Z,33.70
2017-04-09T12:17:16.213Z,33.06
2017-04-09T12:18:16.431Z,31.73
2017-04-09T12:19:16.309Z,32.53
2017-04-09T12:20:16.276Z,31.68
2017-04-09T12:21:16.227Z,31.68
2017-04-09T12:22:16.163Z,32.08
2017-04-09T12:23:17.252Z,31.23
2017-04-09T12:24:17.210Z,31.87
2017-04-09T12:25:18.447Z,28.66
2017-04-09T12:26:19.120Z,28.89
2017-04-09T12:27:19.043Z,28.18
2017-04-09T12:28:19.715Z,27.53
2017-04-09T12:29:19.640Z,28.28
2017-04-09T12:30:19.580Z,28.93
2017-04-09T12:31:19.536Z,30.68
2017-04-09T12:32:19.506Z,32.56
2017-04-09T12:33:20.165Z,32.23
2017-04-09T12:34:20.093Z,34.24
2017-04-09T12:35:20.043Z,31.25
2017-04-09T12:36:19.972Z,32.30
2017-04-09T12:37:20.010Z,32.58
2017-04-09T12:38:20.013Z,32.21
2017-04-09T12:39:20.173Z,33.00
2017-04-09T12:40:20.126Z,34.13
2017-04-09T12:41:20.068Z,33.09
2017-04-09T12:42:20.736Z,32.30
2017-04-09T12:43:20.654Z,34.08
2017-04-09T12:44:20.582Z,32.77
2017-04-09T12:45:20.507Z,33.93
2017-04-09T12:46:21.249Z,31.90
2017-04-09T12:47:21.234Z,33.31
2017-04-09T12:48:21.941Z,34.18
2017-04-09T12:49:21.897Z,33.55
2017-04-09T12:50:21.884Z,32.12
2017-04-09T12:51:22.570Z,31.05
2017-04-09T12:52:22.528Z,32.88
2017-04-09T12:53:22.508Z,33.80
2017-04-09T12:54:23.170Z,31.27